createdAt,value
2023-03-18T00:00:35.304Z,35.55
2023-03-18T00:03:43.232Z,34.10
2023-03-18T00:06:49.917Z,35.71
2023-03-18T00:09:56.817Z,36.01
2023-03-18T00:13:04.683Z,37.48
2023-03-18T00:16:15.340Z,35.98
2023-03-18T00:19:21.386Z,38.00
2023-03-18T00:22:28.618Z,39.83
2023-03-18T00:25:34.560Z,41.90
2023-03-18T00:28:46.647Z,41.51
2023-03-18T00:31:56.438Z,38.66
2023-03-18T00:35:06.358Z,36.74
2023-03-18T00:38:20.963Z,36.44
2023-03-18T00:41:29.404Z,36.12
2023-03-18T00:44:43.600Z,35.11
2023-03-18T00:47:53.952Z,37.17
2023-03-18T00:51:00.854Z,38.00
2023-03-18T00:54:19.932Z,38.59
2023-03-18T00:57:27.613Z,37.58
2023-03-18T01:00:35.848Z,37.59
2023-03-18T01:03:47.921Z,37.83
2023-03-18T01:06:54.635Z,39.16
2023-03-18T01:10:00.521Z,40.46
2023-03-18T01:13:07.249Z,41.58
2023-03-18T01:16:18.080Z,41.98
2023-03-18T01:19:29.449Z,42.84
2023-03-18T01:22:36.246Z,44.13
2023-03-18T01:25:43.577Z,44.85
2023-03-18T01:28:51.053Z,45.34
2023-03-18T01:32:10.918Z,46.15
2023-03-18T01:35:20.507Z,45.57
2023-03-18T01:38:34.845Z,46.01
2023-03-18T01:42:00.121Z,45.13
2023-03-18T01:45:24.928Z,44.87
2023-03-18T01:48:42.751Z,42.63
2023-03-18T01:52:00.633Z,41.99
2023-03-18T01:55:12.876Z,42.60
2023-03-18T01:58:25.714Z,42.25
2023-03-18T02:01:38.361Z,40.51
2023-03-18T02:04:50.949Z,40.85
2023-03-18T02:08:06.941Z,40.56
2023-03-18T02:11:14.439Z,39.96
2023-03-18T02:14:26.878Z,39.96
2023-03-18T02:17:40.386Z,39.95
2023-03-18T02:21:17.045Z,39.41
2023-03-18T02:24:48.360Z,40.26
2023-03-18T02:28:11.689Z,39.10
2023-03-18T02:31:21.244Z,39.31
2023-03-18T02:34:29.638Z,40.82
2023-03-18T02:37:37.405Z,41.03
2023-03-18T02:40:46.173Z,42.07
2023-03-18T02:44:01.065Z,42.72
2023-03-18T02:47:23.803Z,42.14
2023-03-18T02:50:30.812Z,42.85
2023-03-18T02:54:04.201Z,42.78
2023-03-18T02:57:16.199Z,43.84
2023-03-18T03:00:28.471Z,44.76
2023-03-18T03:03:42.594Z,45.42
2023-03-18T03:06:51.687Z,46.38
2023-03-18T03:10:05.250Z,48.23
2023-03-18T03:13:13.710Z,48.16
2023-03-18T03:16:24.969Z,48.25
2023-03-18T03:19:31.122Z,49.07
2023-03-18T03:22:51.575Z,48.97
2023-03-18T03:26:04.076Z,50.27
2023-03-18T03:29:12.811Z,48.19
2023-03-18T03:32:24.899Z,46.80
2023-03-18T03:35:32.645Z,45.48
2023-03-18T03:38:38.839Z,44.83
2023-03-18T03:41:46.473Z,45.00
2023-03-18T03:44:55.140Z,42.72
2023-03-18T03:48:15.697Z,42.47
2023-03-18T03:51:24.126Z,41.65
2023-03-18T03:54:31.703Z,41.85
2023-03-18T03:57:40.008Z,40.39
2023-03-18T04:00:46.770Z,39.91
2023-03-18T04:03:58.168Z,40.84
2023-03-18T04:07:05.383Z,40.03
2023-03-18T04:10:15.179Z,38.07
2023-03-18T04:13:22.775Z,37.51
2023-03-18T04:16:29.541Z,37.59
2023-03-18T04:19:39.953Z,37.39
2023-03-18T04:22:47.070Z,36.44
2023-03-18T04:25:55.044Z,37.32
2023-03-18T04:29:01.202Z,36.52
2023-03-18T04:32:11.123Z,36.10
2023-03-18T04:35:21.712Z,35.81
2023-03-18T04:38:30.789Z,35.68
2023-03-18T04:41:37.692Z,35.96
2023-03-18T04:44:45.928Z,35.94
2023-03-18T04:47:53.079Z,35.80
2023-03-18T04:51:08.395Z,36.08
2023-03-18T04:54:15.396Z,35.98
2023-03-18T04:57:22.621Z,35.87
2023-03-18T05:00:35.445Z,36.08
2023-03-18T05:03:55.465Z,36.59
2023-03-18T05:07:07.384Z,36.88
2023-03-18T05:10:19.089Z,36.97
2023-03-18T05:13:25.489Z,37.31
2023-03-18T05:16:37.474Z,37.03
2023-03-18T05:19:44.259Z,37.24
2023-03-18T05:22:58.459Z,37.86
2023-03-18T05:26:20.857Z,36.61
2023-03-18T05:29:27.935Z,35.85
2023-03-18T05:32:43.653Z,34.81
2023-03-18T05:35:51.148Z,34.94
2023-03-18T05:39:03.503Z,34.14
2023-03-18T05:42:11.817Z,34.13
2023-03-18T05:45:22.557Z,33.75
2023-03-18T05:48:36.414Z,33.66
2023-03-18T05:51:44.998Z,34.23
2023-03-18T05:54:59.501Z,35.06
2023-03-18T05:58:10.385Z,34.69
2023-03-18T06:01:23.009Z,34.64
2023-03-18T06:04:29.507Z,34.57
2023-03-18T06:07:36.896Z,34.49
2023-03-18T06:11:00.761Z,33.94
2023-03-18T06:14:11.990Z,34.32
2023-03-18T06:17:18.317Z,34.51
2023-03-18T06:20:25.403Z,34.19
2023-03-18T06:23:31.936Z,34.98
2023-03-18T06:26:41.726Z,34.30
2023-03-18T06:29:48.206Z,37.02
2023-03-18T06:32:58.096Z,37.76
2023-03-18T06:36:10.832Z,42.81
2023-03-18T06:39:30.189Z,43.37
2023-03-18T06:42:44.855Z,44.34
2023-03-18T06:45:59.750Z,42.76
2023-03-18T06:49:22.679Z,42.41
2023-03-18T06:52:40.696Z,42.25
2023-03-18T06:56:00.364Z,42.50
2023-03-18T06:59:28.885Z,42.58
2023-03-18T07:02:39.439Z,43.35
2023-03-18T07:05:47.914Z,43.46
2023-03-18T07:08:55.340Z,43.54
2023-03-18T07:12:03.574Z,45.70
2023-03-18T07:15:14.945Z,45.62
2023-03-18T07:18:21.906Z,45.23
2023-03-18T07:21:28.204Z,43.90
2023-03-18T07:24:36.175Z,43.47
2023-03-18T07:27:42.492Z,41.88
2023-03-18T07:30:54.052Z,41.72
2023-03-18T07:34:00.804Z,40.90
2023-03-18T07:37:17.830Z,40.60
2023-03-18T07:40:26.421Z,40.67
2023-03-18T07:43:33.081Z,40.56
2023-03-18T07:46:41.693Z,39.78
2023-03-18T07:49:48.646Z,40.10
2023-03-18T07:52:55.190Z,38.88
2023-03-18T07:56:08.403Z,38.24
2023-03-18T07:59:16.107Z,36.91
2023-03-18T08:02:28.418Z,35.31
2023-03-18T08:05:34.981Z,35.78
2023-03-18T08:08:44.891Z,35.06
2023-03-18T08:11:51.063Z,35.56
2023-03-18T08:14:58.217Z,35.64
2023-03-18T08:18:27.398Z,36.71
2023-03-18T08:21:50.890Z,34.50
2023-03-18T08:24:58.508Z,33.59
2023-03-18T08:28:12.352Z,33.25
2023-03-18T08:31:18.493Z,32.28
2023-03-18T08:34:28.100Z,32.88
2023-03-18T08:37:34.083Z,33.29
2023-03-18T08:40:48.524Z,33.16
2023-03-18T08:43:57.519Z,31.36
2023-03-18T08:47:04.441Z,32.64
2023-03-18T08:50:17.362Z,29.96
2023-03-18T08:53:24.520Z,25.24
2023-03-18T08:56:32.769Z,25.93
2023-03-18T08:59:44.802Z,25.62
2023-03-18T09:02:51.193Z,25.17
2023-03-18T09:06:00.794Z,20.98
2023-03-18T09:09:09.854Z,20.18
2023-03-18T09:12:19.583Z,18.51
2023-03-18T09:15:25.775Z,18.83
2023-03-18T09:18:32.867Z,18.12
2023-03-18T09:21:41.689Z,16.31
2023-03-18T09:24:48.569Z,21.76
2023-03-18T09:27:55.344Z,20.91
2023-03-18T09:31:02.812Z,19.67
2023-03-18T09:34:08.709Z,19.24
2023-03-18T09:37:25.688Z,22.28
2023-03-18T09:40:44.124Z,21.34
2023-03-18T09:44:14.974Z,18.42
2023-03-18T09:47:54.349Z,17.92
2023-03-18T09:51:20.030Z,17.38
2023-03-18T09:54:41.415Z,16.05
2023-03-18T09:57:54.588Z,15.19
2023-03-18T10:01:07.461Z,14.05
2023-03-18T10:04:23.790Z,13.68
2023-03-18T10:07:40.409Z,12.94
2023-03-18T10:10:52.610Z,11.08
2023-03-18T10:14:21.360Z,9.54
2023-03-18T10:17:35.838Z,10.02
2023-03-18T10:21:08.221Z,10.81
2023-03-18T10:24:38.277Z,10.68
2023-03-18T10:28:06.937Z,10.29
2023-03-18T10:31:29.939Z,10.04
2023-03-18T10:34:49.319Z,11.79
2023-03-18T10:38:06.202Z,10.63
2023-03-18T10:41:30.375Z,11.43
2023-03-18T10:44:45.802Z,10.87
2023-03-18T10:48:06.322Z,9.86
2023-03-18T10:51:24.874Z,10.54
2023-03-18T10:54:41.147Z,10.73
2023-03-18T10:57:48.068Z,11.24
2023-03-18T11:00:56.547Z,9.97
2023-03-18T11:04:11.466Z,10.44
2023-03-18T11:07:26.192Z,10.60
2023-03-18T11:10:40.053Z,12.64
2023-03-18T11:13:50.876Z,12.78
2023-03-18T11:17:06.492Z,12.14
2023-03-18T11:20:25.637Z,12.11
2023-03-18T11:23:56.275Z,12.76
2023-03-18T11:27:02.557Z,13.60
2023-03-18T11:30:33.667Z,12.74
2023-03-18T11:33:42.797Z,12.80
2023-03-18T11:36:59.222Z,13.97
2023-03-18T11:40:26.570Z,13.91
2023-03-18T11:43:33.471Z,14.45
2023-03-18T11:46:48.736Z,15.82
2023-03-18T11:49:59.661Z,11.32
2023-03-18T11:53:26.472Z,12.06
2023-03-18T11:56:43.700Z,12.53
2023-03-18T12:00:17.829Z,11.85
2023-03-18T12:04:08.097Z,11.25
2023-03-18T12:07:52.477Z,9.53
2023-03-18T12:11:14.839Z,9.65
2023-03-18T12:14:36.527Z,8.93
2023-03-18T12:18:04.520Z,8.48
2023-03-18T12:21:45.727Z,8.67
2023-03-18T12:25:30.922Z,8.66
2023-03-18T12:28:56.512Z,12.67
2023-03-18T12:32:26.740Z,10.07
2023-03-18T12:35:53.664Z,10.24
2023-03-18T12:39:31.219Z,10.39
2023-03-18T12:43:03.945Z,10.36
2023-03-18T12:46:29.475Z,11.03
2023-03-18T12:49:41.952Z,11.03
2023-03-18T12:52:57.959Z,12.51
2023-03-18T12:56:27.839Z,11.34
2023-03-18T12:59:53.957Z,8.96
2023-03-18T13:03:09.012Z,8.96
2023-03-18T13:06:26.826Z,8.70
2023-03-18T13:09:43.918Z,8.49
2023-03-18T13:12:56.218Z,8.64
2023-03-18T13:16:09.290Z,8.41
2023-03-18T13:19:16.127Z,8.31
2023-03-18T13:23:00.687Z,8.79
2023-03-18T13:26:24.529Z,8.57
2023-03-18T13:29:46.197Z,8.84
2023-03-18T13:33:37.494Z,9.10
2023-03-18T13:37:30.896Z,9.61
2023-03-18T13:41:22.627Z,9.96
2023-03-18T13:44:47.736Z,10.89
2023-03-18T13:48:08.842Z,9.56
2023-03-18T13:51:43.679Z,9.60
2023-03-18T13:54:51.826Z,9.16
2023-03-18T13:58:11.860Z,9.43
2023-03-18T14:01:36.763Z,9.30
2023-03-18T14:04:53.738Z,9.77
2023-03-18T14:08:45.118Z,9.98
2023-03-18T14:11:54.631Z,10.07
2023-03-18T14:15:08.265Z,9.37
2023-03-18T14:18:28.865Z,8.90
2023-03-18T14:21:52.621Z,9.40
2023-03-18T14:25:23.819Z,8.83
2023-03-18T14:28:31.973Z,9.69
2023-03-18T14:31:59.454Z,9.99
2023-03-18T14:35:30.082Z,10.27
2023-03-18T14:38:51.956Z,11.10
2023-03-18T14:42:06.180Z,11.44
2023-03-18T14:45:24.733Z,11.36
2023-03-18T14:48:35.585Z,9.92
2023-03-18T14:51:41.940Z,8.85
2023-03-18T14:54:58.077Z,8.54
2023-03-18T14:58:07.383Z,7.52
2023-03-18T15:01:26.056Z,8.75
2023-03-18T15:04:32.206Z,7.63
2023-03-18T15:07:47.740Z,6.35
2023-03-18T15:11:05.817Z,6.35
2023-03-18T15:14:26.271Z,7.01
2023-03-18T15:17:32.492Z,7.17
2023-03-18T15:20:40.596Z,7.59
2023-03-18T15:23:54.694Z,8.21
2023-03-18T15:27:14.680Z,8.89
2023-03-18T15:30:36.369Z,8.65
2023-03-18T15:33:44.176Z,7.89
2023-03-18T15:36:58.214Z,8.32
2023-03-18T15:40:31.273Z,8.38
2023-03-18T15:43:46.452Z,8.16
2023-03-18T15:46:54.786Z,8.35
2023-03-18T15:50:03.100Z,12.57
2023-03-18T15:53:25.101Z,15.00
2023-03-18T15:56:34.541Z,17.65
2023-03-18T15:59:44.269Z,18.06
2023-03-18T16:02:50.771Z,22.70
2023-03-18T16:06:01.223Z,21.49
2023-03-18T16:09:18.807Z,19.46
2023-03-18T16:12:29.991Z,22.52
2023-03-18T16:15:39.486Z,20.60
2023-03-18T16:18:46.928Z,18.76
2023-03-18T16:21:52.871Z,16.75
2023-03-18T16:24:59.945Z,17.67
2023-03-18T16:28:25.975Z,31.43
2023-03-18T16:31:42.336Z,37.18
2023-03-18T16:34:48.775Z,60.45
2023-03-18T16:37:57.090Z,68.27
2023-03-18T16:41:05.316Z,58.95
2023-03-18T16:44:19.470Z,58.32
2023-03-18T16:47:32.143Z,54.32
2023-03-18T16:50:45.064Z,42.49
2023-03-18T16:53:56.407Z,49.56
2023-03-18T16:57:08.373Z,60.69
2023-03-18T17:00:22.936Z,76.01
2023-03-18T17:03:35.305Z,80.43
2023-03-18T17:06:41.261Z,87.81
2023-03-18T17:09:48.148Z,79.40
2023-03-18T17:13:00.558Z,50.07
2023-03-18T17:16:08.228Z,44.13
2023-03-18T17:19:19.128Z,43.82
2023-03-18T17:22:29.689Z,47.38
2023-03-18T17:25:36.399Z,41.03
2023-03-18T17:28:49.531Z,35.76
2023-03-18T17:31:57.607Z,34.19
2023-03-18T17:35:17.866Z,37.59
2023-03-18T17:38:24.655Z,37.40
2023-03-18T17:41:32.572Z,41.26
2023-03-18T17:44:39.242Z,47.22
2023-03-18T17:47:46.102Z,52.66
2023-03-18T17:50:58.322Z,60.26
2023-03-18T17:54:05.946Z,62.85
2023-03-18T17:57:18.098Z,71.41
2023-03-18T18:00:29.311Z,86.15
2023-03-18T18:03:38.974Z,83.97
2023-03-18T18:06:50.149Z,74.01
2023-03-18T18:09:57.292Z,73.20
2023-03-18T18:13:04.946Z,123.31
2023-03-18T18:16:11.212Z,111.48
2023-03-18T18:19:18.872Z,94.27
2023-03-18T18:22:27.863Z,80.21
2023-03-18T18:25:35.956Z,66.32
2023-03-18T18:28:45.033Z,62.84
2023-03-18T18:31:52.471Z,66.64
2023-03-18T18:34:58.488Z,70.23
2023-03-18T18:38:08.208Z,72.54
2023-03-18T18:41:14.551Z,83.89
2023-03-18T18:44:22.007Z,74.21
2023-03-18T18:47:28.215Z,64.65
2023-03-18T18:50:35.804Z,62.09
2023-03-18T18:53:44.452Z,72.26
2023-03-18T18:56:51.434Z,85.70
2023-03-18T18:59:58.302Z,87.34
2023-03-18T19:03:05.996Z,106.75
2023-03-18T19:06:29.522Z,123.01
2023-03-18T19:09:39.395Z,134.71
2023-03-18T19:12:46.495Z,117.09
2023-03-18T19:15:58.395Z,105.90
2023-03-18T19:19:06.303Z,120.72
2023-03-18T19:22:18.345Z,137.88
2023-03-18T19:25:28.818Z,169.41
2023-03-18T19:28:59.724Z,163.35
2023-03-18T19:32:09.425Z,133.99
2023-03-18T19:35:17.358Z,119.67
2023-03-18T19:38:25.148Z,107.39
2023-03-18T19:41:34.566Z,122.87
2023-03-18T19:44:42.671Z,120.62
2023-03-18T19:47:50.068Z,106.59
2023-03-18T19:50:57.884Z,102.04
2023-03-18T19:54:31.725Z,109.60
2023-03-18T19:57:40.350Z,90.13
2023-03-18T20:00:47.811Z,88.83
2023-03-18T20:03:59.161Z,85.70
2023-03-18T20:07:08.484Z,69.95
2023-03-18T20:10:16.912Z,56.88
2023-03-18T20:13:27.242Z,51.90
2023-03-18T20:16:36.505Z,40.65
2023-03-18T20:19:43.314Z,39.62
2023-03-18T20:22:55.934Z,39.10
2023-03-18T20:26:02.994Z,38.85
2023-03-18T20:29:21.132Z,40.44
2023-03-18T20:32:28.414Z,46.09
2023-03-18T20:35:38.411Z,41.79
2023-03-18T20:38:48.344Z,45.35
2023-03-18T20:41:54.634Z,45.36
2023-03-18T20:45:04.321Z,45.15
2023-03-18T20:48:10.780Z,44.13
2023-03-18T20:51:25.406Z,46.94
2023-03-18T20:54:37.562Z,46.39
2023-03-18T20:57:44.292Z,48.68
2023-03-18T21:00:54.252Z,48.17
2023-03-18T21:04:02.570Z,49.16
2023-03-18T21:07:08.566Z,44.02
2023-03-18T21:10:21.416Z,39.96
2023-03-18T21:13:34.014Z,36.41
2023-03-18T21:16:43.584Z,34.71
2023-03-18T21:19:50.484Z,36.35
2023-03-18T21:22:58.035Z,43.35
2023-03-18T21:26:04.426Z,43.34
2023-03-18T21:29:11.076Z,43.09
2023-03-18T21:32:27.331Z,43.19
2023-03-18T21:35:34.611Z,46.12
2023-03-18T21:38:40.708Z,53.59
2023-03-18T21:41:47.550Z,51.63
2023-03-18T21:44:54.768Z,41.65
2023-03-18T21:48:04.164Z,34.25
2023-03-18T21:51:38.182Z,30.15
2023-03-18T21:54:45.890Z,27.53
2023-03-18T21:57:52.853Z,29.62
2023-03-18T22:01:02.710Z,32.28
2023-03-18T22:04:12.128Z,34.11
2023-03-18T22:07:21.912Z,33.24
2023-03-18T22:10:28.941Z,35.13
2023-03-18T22:13:36.235Z,36.07
2023-03-18T22:16:42.088Z,35.17
2023-03-18T22:19:52.308Z,35.28
2023-03-18T22:22:58.442Z,38.28
2023-03-18T22:26:05.140Z,38.19
2023-03-18T22:29:10.921Z,37.47
2023-03-18T22:32:40.677Z,37.81
2023-03-18T22:35:49.663Z,38.23
2023-03-18T22:38:56.536Z,39.18
2023-03-18T22:42:02.665Z,38.00
2023-03-18T22:45:22.810Z,41.66
2023-03-18T22:48:29.737Z,45.76
2023-03-18T22:51:44.987Z,48.27
2023-03-18T22:54:56.086Z,48.39
2023-03-18T22:58:02.837Z,50.09
2023-03-18T23:01:09.923Z,52.04
2023-03-18T23:04:19.708Z,54.25
2023-03-18T23:07:34.456Z,52.89
2023-03-18T23:10:42.348Z,52.04
2023-03-18T23:13:53.433Z,51.84
2023-03-18T23:17:00.137Z,51.95
2023-03-18T23:20:06.278Z,50.75
2023-03-18T23:23:16.442Z,48.22
2023-03-18T23:26:22.758Z,45.25
2023-03-18T23:29:29.483Z,40.54
2023-03-18T23:32:35.965Z,37.50
2023-03-18T23:35:44.232Z,34.39
2023-03-18T23:38:52.817Z,33.53
2023-03-18T23:41:59.826Z,32.27
2023-03-18T23:45:06.951Z,33.57
2023-03-18T23:48:13.685Z,35.43
2023-03-18T23:51:19.525Z,37.24
2023-03-18T23:54:29.212Z,36.10
2023-03-18T23:57:35.104Z,35.82
